Piffard, New York
Current Conditions -  °F | °C
As of 6:54 AM on Monday 20 Oct 2014 (Local Time) from KDSV Reporting Station
Clear Clear  
Wind Chill: 29°   Ceiling: Unl
Heat Index: 37°   Visibility: 10mi
Dew Point: 32°   Wind: 12mph
Humidity: 82%   Direction: 140°SE
Pressure: 29.98"   Gusts: NA
Location:  42.83°N, 77.85°W
Report Text: KDSV 201054Z AUTO 14010KT 10SM CLR 03/00 A2998 RMK AO2 SLP165 T00280000
Loading
Personal Weather Stations






























Interactive Weather Map New forecast layout! Learn more

10-Day Weather Forecast

Advertisements
Track Severe Weather on mobile